03PA weather

Public forecast

Using degrees Fahrenheit for public forecast. Weather courtesy of forecast.io.

Closest aviation weather report (METAR) to Collegeville Heliport

Closest report is Heritage Field, 6.2 nm (11.5 km) NW. Retrieved 2020/08/11 08:54 UTC (35 minutes ago):

KPTW 110854Z AUTO 00000KT 6SM BR OVC007 23/23 A2998 RMK AO2 SLP147 T02330228 58004

Closest aviation forecast (TAF) to Collegeville Heliport

Closest forecast is Philadelphia International Airport, 20.3 nm (37.6 km) SSE. Retrieved 2020/08/11 06:31 UTC (3 hours ago):

TAF KPHL 110524Z 1106/1212 20006KT P6SM SCT200 FM111800 19011KT P6SM SCT060 FM120100 20006KT P6SM FEW250 FM120700 VRB04KT P6SM BKN060